sensor_id;sensor_type;location;lat;lon;timestamp;pressure;altitude;pressure_sealevel;temperature;humidity
77639;BME280;66802;52.574;14.398;2023-08-06T03:00:27;100747.38;;;16.05;89.51
77639;BME280;66802;52.574;14.398;2023-08-06T03:02:53;100757.91;;;16.08;89.15
77639;BME280;66802;52.574;14.398;2023-08-06T03:05:19;100742.78;;;16.05;89.07
77639;BME280;66802;52.574;14.398;2023-08-06T03:07:45;100745.63;;;15.97;89.93
77639;BME280;66802;52.574;14.398;2023-08-06T03:10:10;100749.91;;;15.92;89.92
77639;BME280;66802;52.574;14.398;2023-08-06T03:12:36;100742.41;;;15.94;90.04
77639;BME280;66802;52.574;14.398;2023-08-06T03:15:01;100743.06;;;15.96;89.67
77639;BME280;66802;52.574;14.398;2023-08-06T03:17:27;100742.22;;;15.95;89.72
77639;BME280;66802;52.574;14.398;2023-08-06T03:19:53;100737.44;;;15.97;89.60
77639;BME280;66802;52.574;14.398;2023-08-06T03:22:18;100736.97;;;15.94;89.84
77639;BME280;66802;52.574;14.398;2023-08-06T03:24:44;100723.94;;;15.89;90.34
77639;BME280;66802;52.574;14.398;2023-08-06T03:27:09;100716.81;;;15.88;90.19
77639;BME280;66802;52.574;14.398;2023-08-06T03:29:35;100712.56;;;15.86;90.34
77639;BME280;66802;52.574;14.398;2023-08-06T03:32:00;100702.72;;;15.85;90.36
77639;BME280;66802;52.574;14.398;2023-08-06T03:34:25;100703.38;;;15.87;89.84
77639;BME280;66802;52.574;14.398;2023-08-06T03:36:51;100696.06;;;15.87;90.38
77639;BME280;66802;52.574;14.398;2023-08-06T03:39:16;100691.16;;;15.83;90.82
77639;BME280;66802;52.574;14.398;2023-08-06T03:41:42;100692.19;;;15.82;90.67
77639;BME280;66802;52.574;14.398;2023-08-06T03:44:08;100686.09;;;15.80;91.38
77639;BME280;66802;52.574;14.398;2023-08-06T03:46:33;100689.88;;;15.79;91.52
77639;BME280;66802;52.574;14.398;2023-08-06T03:49:00;100684.44;;;15.79;91.47
77639;BME280;66802;52.574;14.398;2023-08-06T03:51:26;100667.44;;;15.77;92.06
77639;BME280;66802;52.574;14.398;2023-08-06T03:53:51;100669.31;;;15.76;91.80
77639;BME280;66802;52.574;14.398;2023-08-06T03:56:17;100658.44;;;15.76;91.49
77639;BME280;66802;52.574;14.398;2023-08-06T03:58:42;100659.47;;;15.75;91.60
77639;BME280;66802;52.574;14.398;2023-08-06T04:01:08;100653.00;;;15.76;91.65
77639;BME280;66802;52.574;14.398;2023-08-06T04:03:34;100657.59;;;15.76;91.50
77639;BME280;66802;52.574;14.398;2023-08-06T04:05:59;100656.75;;;15.75;91.56
77639;BME280;66802;52.574;14.398;2023-08-06T04:08:26;100661.59;;;15.80;91.25
77639;BME280;66802;52.574;14.398;2023-08-06T04:10:52;100651.56;;;15.80;90.98
77639;BME280;66802;52.574;14.398;2023-08-06T04:13:18;100651.00;;;15.85;90.72
77639;BME280;66802;52.574;14.398;2023-08-06T04:15:44;100644.88;;;15.83;90.80
77639;BME280;66802;52.574;14.398;2023-08-06T04:18:10;100648.47;;;15.83;90.57
77639;BME280;66802;52.574;14.398;2023-08-06T04:20:45;100640.47;;;15.82;90.59
77639;BME280;66802;52.574;14.398;2023-08-06T04:23:11;100630.00;;;15.79;91.12
77639;BME280;66802;52.574;14.398;2023-08-06T04:25:37;100625.34;;;15.79;91.01
77639;BME280;66802;52.574;14.398;2023-08-06T04:28:02;100616.56;;;15.77;91.19
77639;BME280;66802;52.574;14.398;2023-08-06T04:30:28;100616.56;;;15.77;91.12
77639;BME280;66802;52.574;14.398;2023-08-06T04:32:53;100619.47;;;15.76;90.84
77639;BME280;66802;52.574;14.398;2023-08-06T04:35:19;100620.31;;;15.76;90.88
77639;BME280;66802;52.574;14.398;2023-08-06T04:37:44;100617.13;;;15.73;91.29
77639;BME280;66802;52.574;14.398;2023-08-06T04:40:10;100618.63;;;15.75;91.27
77639;BME280;66802;52.574;14.398;2023-08-06T04:42:36;100606.31;;;15.79;91.03
77639;BME280;66802;52.574;14.398;2023-08-06T04:45:02;100602.56;;;15.80;90.81
77639;BME280;66802;52.574;14.398;2023-08-06T04:47:27;100603.59;;;15.79;90.77
77639;BME280;66802;52.574;14.398;2023-08-06T04:49:53;100601.72;;;15.80;90.97
77639;BME280;66802;52.574;14.398;2023-08-06T04:52:19;100595.88;;;15.83;90.72
77639;BME280;66802;52.574;14.398;2023-08-06T04:54:45;100591.88;;;15.79;90.92
77639;BME280;66802;52.574;14.398;2023-08-06T04:57:10;100597.31;;;15.79;91.04
77639;BME280;66802;52.574;14.398;2023-08-06T04:59:36;100584.28;;;15.74;91.38
77639;BME280;66802;52.574;14.398;2023-08-06T05:02:01;100582.59;;;15.73;91.46
77639;BME280;66802;52.574;14.398;2023-08-06T05:04:27;100587.25;;;15.79;91.64
77639;BME280;66802;52.574;14.398;2023-08-06T05:06:53;100583.97;;;15.84;91.06
77639;BME280;66802;52.574;14.398;2023-08-06T05:09:18;100579.38;;;15.84;91.04
77639;BME280;66802;52.574;14.398;2023-08-06T05:11:46;100579.84;;;15.88;90.25
77639;BME280;66802;52.574;14.398;2023-08-06T05:14:12;100581.63;;;15.81;90.98
77639;BME280;66802;52.574;14.398;2023-08-06T05:16:37;100577.69;;;15.83;90.64
77639;BME280;66802;52.574;14.398;2023-08-06T05:19:03;100571.75;;;15.80;91.07
77639;BME280;66802;52.574;14.398;2023-08-06T05:21:29;100569.25;;;15.78;91.05
77639;BME280;66802;52.574;14.398;2023-08-06T05:23:54;100559.59;;;15.76;91.45
77639;BME280;66802;52.574;14.398;2023-08-06T05:26:20;100558.16;;;15.80;91.19
77639;BME280;66802;52.574;14.398;2023-08-06T05:28:45;100556.38;;;15.87;90.80
77639;BME280;66802;52.574;14.398;2023-08-06T05:31:12;100543.69;;;15.79;90.88
77639;BME280;66802;52.574;14.398;2023-08-06T05:33:37;100548.56;;;15.84;90.99
77639;BME280;66802;52.574;14.398;2023-08-06T05:36:03;100543.59;;;15.87;90.61
77639;BME280;66802;52.574;14.398;2023-08-06T05:38:29;100538.25;;;15.79;91.33
77639;BME280;66802;52.574;14.398;2023-08-06T05:40:55;100552.28;;;15.97;90.99
77639;BME280;66802;52.574;14.398;2023-08-06T05:43:22;100550.78;;;15.95;90.58
77639;BME280;66802;52.574;14.398;2023-08-06T05:45:49;100555.66;;;15.99;91.20
77639;BME280;66802;52.574;14.398;2023-08-06T05:48:16;100546.19;;;15.95;90.95
77639;BME280;66802;52.574;14.398;2023-08-06T05:50:41;100541.03;;;16.00;90.52
77639;BME280;66802;52.574;14.398;2023-08-06T05:53:07;100539.94;;;16.01;90.75
77639;BME280;66802;52.574;14.398;2023-08-06T05:55:33;100535.56;;;16.00;90.71
77639;BME280;66802;52.574;14.398;2023-08-06T05:57:59;100534.25;;;15.96;90.73
77639;BME280;66802;52.574;14.398;2023-08-06T06:00:24;100533.22;;;15.97;90.99
77639;BME280;66802;52.574;14.398;2023-08-06T06:02:50;100532.19;;;15.98;90.85
77639;BME280;66802;52.574;14.398;2023-08-06T06:05:15;100520.84;;;15.95;90.79
77639;BME280;66802;52.574;14.398;2023-08-06T06:07:41;100524.53;;;15.87;91.38
77639;BME280;66802;52.574;14.398;2023-08-06T06:10:07;100521.03;;;15.93;91.31
77639;BME280;66802;52.574;14.398;2023-08-06T06:12:33;100522.47;;;15.89;91.72
77639;BME280;66802;52.574;14.398;2023-08-06T06:14:58;100513.25;;;15.90;91.85
77639;BME280;66802;52.574;14.398;2023-08-06T06:17:26;100516.44;;;15.94;91.64
77639;BME280;66802;52.574;14.398;2023-08-06T06:19:52;100520.13;;;15.86;91.49
77639;BME280;66802;52.574;14.398;2023-08-06T06:22:18;100508.25;;;15.94;91.83
77639;BME280;66802;52.574;14.398;2023-08-06T06:24:43;100508.88;;;15.89;92.04
77639;BME280;66802;52.574;14.398;2023-08-06T06:27:09;100504.88;;;15.92;91.91
77639;BME280;66802;52.574;14.398;2023-08-06T06:29:34;100504.56;;;16.01;91.08
77639;BME280;66802;52.574;14.398;2023-08-06T06:32:00;100500.03;;;16.09;90.22
77639;BME280;66802;52.574;14.398;2023-08-06T06:34:25;100499.63;;;15.90;91.29
77639;BME280;66802;52.574;14.398;2023-08-06T06:36:51;100503.63;;;15.88;92.02
77639;BME280;66802;52.574;14.398;2023-08-06T06:39:17;100490.66;;;15.90;92.17
77639;BME280;66802;52.574;14.398;2023-08-06T06:41:43;100493.66;;;16.01;91.76
77639;BME280;66802;52.574;14.398;2023-08-06T06:44:09;100500.59;;;16.04;91.34
77639;BME280;66802;52.574;14.398;2023-08-06T06:46:35;100499.94;;;16.02;91.54
77639;BME280;66802;52.574;14.398;2023-08-06T06:49:01;100488.34;;;15.93;91.98
77639;BME280;66802;52.574;14.398;2023-08-06T06:51:26;100494.84;;;15.92;92.59
77639;BME280;66802;52.574;14.398;2023-08-06T06:53:52;100493.44;;;15.96;92.82
77639;BME280;66802;52.574;14.398;2023-08-06T06:56:17;100491.16;;;16.00;92.73
77639;BME280;66802;52.574;14.398;2023-08-06T06:58:43;100496.28;;;16.10;92.15
77639;BME280;66802;52.574;14.398;2023-08-06T07:01:09;100498.53;;;16.06;92.30
77639;BME280;66802;52.574;14.398;2023-08-06T07:03:37;100500.78;;;16.02;92.84
77639;BME280;66802;52.574;14.398;2023-08-06T07:06:02;100499.56;;;16.05;92.87
77639;BME280;66802;52.574;14.398;2023-08-06T07:08:29;100503.53;;;16.02;93.28
77639;BME280;66802;52.574;14.398;2023-08-06T07:11:02;100501.63;;;16.03;93.50
77639;BME280;66802;52.574;14.398;2023-08-06T07:13:28;100495.34;;;16.02;93.58
77639;BME280;66802;52.574;14.398;2023-08-06T07:15:54;100494.38;;;16.10;93.26
77639;BME280;66802;52.574;14.398;2023-08-06T07:18:20;100486.06;;;16.18;92.96
77639;BME280;66802;52.574;14.398;2023-08-06T07:20:53;100491.31;;;16.20;93.01
77639;BME280;66802;52.574;14.398;2023-08-06T07:23:24;100489.84;;;16.17;93.34
77639;BME280;66802;52.574;14.398;2023-08-06T07:25:50;100484.19;;;16.19;93.74
77639;BME280;66802;52.574;14.398;2023-08-06T07:28:16;100478.97;;;16.24;93.65
77639;BME280;66802;52.574;14.398;2023-08-06T07:30:43;100477.09;;;16.24;93.58
77639;BME280;66802;52.574;14.398;2023-08-06T07:33:09;100482.97;;;16.21;94.02
77639;BME280;66802;52.574;14.398;2023-08-06T07:35:36;100483.00;;;16.28;94.22
77639;BME280;66802;52.574;14.398;2023-08-06T07:38:02;100478.91;;;16.38;93.57
77639;BME280;66802;52.574;14.398;2023-08-06T07:40:27;100471.94;;;16.36;93.56
77639;BME280;66802;52.574;14.398;2023-08-06T07:42:54;100470.03;;;16.30;93.98
77639;BME280;66802;52.574;14.398;2023-08-06T07:45:19;100462.50;;;16.32;94.02
77639;BME280;66802;52.574;14.398;2023-08-06T07:47:45;100468.53;;;16.27;94.57
77639;BME280;66802;52.574;14.398;2023-08-06T07:50:11;100463.66;;;16.23;95.01
77639;BME280;66802;52.574;14.398;2023-08-06T07:52:36;100458.31;;;16.36;94.60
77639;BME280;66802;52.574;14.398;2023-08-06T07:55:02;100460.41;;;16.34;94.56
77639;BME280;66802;52.574;14.398;2023-08-06T07:57:33;100449.50;;;16.34;95.03
77639;BME280;66802;52.574;14.398;2023-08-06T08:00:00;100457.06;;;16.32;95.58
77639;BME280;66802;52.574;14.398;2023-08-06T08:02:25;100455.88;;;16.41;94.85
77639;BME280;66802;52.574;14.398;2023-08-06T08:04:51;100446.03;;;16.47;94.53
77639;BME280;66802;52.574;14.398;2023-08-06T08:07:17;100438.69;;;16.47;94.72
77639;BME280;66802;52.574;14.398;2023-08-06T08:09:42;100441.22;;;16.49;94.23
77639;BME280;66802;52.574;14.398;2023-08-06T08:12:08;100437.66;;;16.48;94.55
77639;BME280;66802;52.574;14.398;2023-08-06T08:14:33;100439.09;;;16.44;94.98
77639;BME280;66802;52.574;14.398;2023-08-06T08:17:05;100429.94;;;16.52;95.13
77639;BME280;66802;52.574;14.398;2023-08-06T08:19:33;100429.53;;;16.55;94.87
77639;BME280;66802;52.574;14.398;2023-08-06T08:21:58;100423.97;;;16.63;94.19
77639;BME280;66802;52.574;14.398;2023-08-06T08:24:26;100424.91;;;16.55;94.52
77639;BME280;66802;52.574;14.398;2023-08-06T08:26:51;100417.00;;;16.60;94.78
77639;BME280;66802;52.574;14.398;2023-08-06T08:29:18;100417.19;;;16.59;94.82
77639;BME280;66802;52.574;14.398;2023-08-06T08:31:44;100411.53;;;16.60;94.68
77639;BME280;66802;52.574;14.398;2023-08-06T08:34:10;100412.84;;;16.64;94.35
77639;BME280;66802;52.574;14.398;2023-08-06T08:36:35;100409.91;;;16.66;94.41
77639;BME280;66802;52.574;14.398;2023-08-06T08:39:02;100405.72;;;16.63;94.29
77639;BME280;66802;52.574;14.398;2023-08-06T08:41:30;100408.66;;;16.62;94.44
77639;BME280;66802;52.574;14.398;2023-08-06T08:43:58;100406.94;;;16.61;95.00
77639;BME280;66802;52.574;14.398;2023-08-06T08:46:27;100414.09;;;16.62;95.32
77639;BME280;66802;52.574;14.398;2023-08-06T08:48:54;100413.06;;;16.69;95.25
77639;BME280;66802;52.574;14.398;2023-08-06T08:51:21;100404.50;;;16.72;94.91
77639;BME280;66802;52.574;14.398;2023-08-06T08:53:49;100409.13;;;16.78;95.59
77639;BME280;66802;52.574;14.398;2023-08-06T08:56:19;100414.66;;;16.92;96.24
77639;BME280;66802;52.574;14.398;2023-08-06T08:58:45;100409.44;;;16.97;95.45
77639;BME280;66802;52.574;14.398;2023-08-06T09:01:11;100401.88;;;16.99;94.26
77639;BME280;66802;52.574;14.398;2023-08-06T09:03:36;100405.28;;;17.07;94.08
77639;BME280;66802;52.574;14.398;2023-08-06T09:06:03;100396.84;;;17.02;94.42
77639;BME280;66802;52.574;14.398;2023-08-06T09:08:36;100392.25;;;17.03;94.62
77639;BME280;66802;52.574;14.398;2023-08-06T09:11:04;100384.91;;;17.03;94.81
77639;BME280;66802;52.574;14.398;2023-08-06T09:13:30;100377.78;;;17.09;94.59
77639;BME280;66802;52.574;14.398;2023-08-06T09:15:56;100373.41;;;17.08;93.95
77639;BME280;66802;52.574;14.398;2023-08-06T09:18:29;100372.56;;;17.14;92.73
77639;BME280;66802;52.574;14.398;2023-08-06T09:20:56;100371.06;;;17.11;93.48
77639;BME280;66802;52.574;14.398;2023-08-06T09:23:29;100366.91;;;17.15;93.11
77639;BME280;66802;52.574;14.398;2023-08-06T09:25:56;100363.13;;;17.23;92.38
77639;BME280;66802;52.574;14.398;2023-08-06T09:28:22;100354.31;;;17.21;92.15
77639;BME280;66802;52.574;14.398;2023-08-06T09:30:50;100358.91;;;17.14;92.99
77639;BME280;66802;52.574;14.398;2023-08-06T09:33:19;100349.88;;;17.07;93.62
77639;BME280;66802;52.574;14.398;2023-08-06T09:35:46;100349.69;;;17.15;93.98
77639;BME280;66802;52.574;14.398;2023-08-06T09:38:12;100349.09;;;17.20;92.60
77639;BME280;66802;52.574;14.398;2023-08-06T09:40:39;100345.72;;;17.18;92.36
77639;BME280;66802;52.574;14.398;2023-08-06T09:43:05;100342.16;;;17.17;92.19
77639;BME280;66802;52.574;14.398;2023-08-06T09:45:33;100341.28;;;17.10;93.20
77639;BME280;66802;52.574;14.398;2023-08-06T09:48:02;100336.88;;;17.15;92.61
77639;BME280;66802;52.574;14.398;2023-08-06T09:50:33;100334.16;;;17.15;92.11
77639;BME280;66802;52.574;14.398;2023-08-06T09:53:00;100331.63;;;17.14;91.42
77639;BME280;66802;52.574;14.398;2023-08-06T09:55:26;100332.47;;;17.08;91.27
77639;BME280;66802;52.574;14.398;2023-08-06T09:57:53;100326.16;;;17.01;92.04
77639;BME280;66802;52.574;14.398;2023-08-06T10:00:19;100330.75;;;17.00;91.49
77639;BME280;66802;52.574;14.398;2023-08-06T10:02:46;100329.06;;;16.99;92.24
77639;BME280;66802;52.574;14.398;2023-08-06T10:05:12;100324.25;;;17.01;92.60
77639;BME280;66802;52.574;14.398;2023-08-06T10:07:38;100317.13;;;17.00;92.23
77639;BME280;66802;52.574;14.398;2023-08-06T10:10:06;100325.94;;;17.02;92.43
77639;BME280;66802;52.574;14.398;2023-08-06T10:12:48;100311.47;;;17.02;92.49
77639;BME280;66802;52.574;14.398;2023-08-06T10:15:18;100311.66;;;17.00;92.08
77639;BME280;66802;52.574;14.398;2023-08-06T10:17:47;100303.09;;;17.03;91.02
77639;BME280;66802;52.574;14.398;2023-08-06T10:20:15;100305.38;;;17.00;91.84
77639;BME280;66802;52.574;14.398;2023-08-06T10:22:44;100298.66;;;17.02;91.78
77639;BME280;66802;52.574;14.398;2023-08-06T10:25:10;100310.22;;;17.04;91.83
77639;BME280;66802;52.574;14.398;2023-08-06T10:32:53;100295.31;;;17.00;92.63
77639;BME280;66802;52.574;14.398;2023-08-06T10:35:37;100288.84;;;17.08;91.89
77639;BME280;66802;52.574;14.398;2023-08-06T10:38:10;100297.63;;;17.03;91.81
77639;BME280;66802;52.574;14.398;2023-08-06T10:40:37;100284.41;;;17.00;92.13
77639;BME280;66802;52.574;14.398;2023-08-06T10:43:05;100285.03;;;16.96;92.25
77639;BME280;66802;52.574;14.398;2023-08-06T10:45:37;100284.00;;;16.97;92.11
77639;BME280;66802;52.574;14.398;2023-08-06T10:48:03;100274.13;;;16.96;92.70
77639;BME280;66802;52.574;14.398;2023-08-06T10:50:29;100273.69;;;16.92;92.91
77639;BME280;66802;52.574;14.398;2023-08-06T10:52:57;100273.91;;;16.91;93.56
77639;BME280;66802;52.574;14.398;2023-08-06T10:55:25;100274.13;;;16.96;93.91
77639;BME280;66802;52.574;14.398;2023-08-06T10:57:51;100271.41;;;17.02;92.93
77639;BME280;66802;52.574;14.398;2023-08-06T11:00:17;100268.69;;;17.02;92.94
77639;BME280;66802;52.574;14.398;2023-08-06T11:02:43;100258.59;;;17.03;92.24
77639;BME280;66802;52.574;14.398;2023-08-06T11:05:11;100256.72;;;16.97;93.06
77639;BME280;66802;52.574;14.398;2023-08-06T11:07:38;100254.84;;;17.04;93.82
77639;BME280;66802;52.574;14.398;2023-08-06T11:10:09;100246.66;;;17.04;93.84
77639;BME280;66802;52.574;14.398;2023-08-06T11:12:35;100244.97;;;17.09;93.62
77639;BME280;66802;52.574;14.398;2023-08-06T11:15:02;100244.34;;;17.14;92.63
77639;BME280;66802;52.574;14.398;2023-08-06T11:17:30;100240.16;;;17.11;92.59
77639;BME280;66802;52.574;14.398;2023-08-06T11:19:59;100229.88;;;17.07;92.87
77639;BME280;66802;52.574;14.398;2023-08-06T11:22:24;100229.69;;;17.08;93.38
77639;BME280;66802;52.574;14.398;2023-08-06T11:24:50;100229.88;;;17.07;92.30
77639;BME280;66802;52.574;14.398;2023-08-06T11:27:16;100227.56;;;17.04;92.61
77639;BME280;66802;52.574;14.398;2023-08-06T11:29:44;100226.28;;;17.00;93.11
77639;BME280;66802;52.574;14.398;2023-08-06T11:32:11;100227.75;;;17.02;93.47
77639;BME280;66802;52.574;14.398;2023-08-06T11:34:37;100230.50;;;17.02;93.13
77639;BME280;66802;52.574;14.398;2023-08-06T11:37:04;100219.16;;;16.99;93.21
77639;BME280;66802;52.574;14.398;2023-08-06T11:39:37;100213.28;;;17.02;92.82
77639;BME280;66802;52.574;14.398;2023-08-06T11:42:05;100218.53;;;17.03;93.58
77639;BME280;66802;52.574;14.398;2023-08-06T11:44:32;100215.38;;;17.00;93.03
77639;BME280;66802;52.574;14.398;2023-08-06T11:46:59;100221.69;;;17.00;93.55
77639;BME280;66802;52.574;14.398;2023-08-06T11:54:44;100213.94;;;17.04;94.60
77639;BME280;66802;52.574;14.398;2023-08-06T11:57:11;100220.41;;;17.09;94.23
77639;BME280;66802;52.574;14.398;2023-08-06T11:59:38;100219.59;;;17.15;93.92
77639;BME280;66802;52.574;14.398;2023-08-06T12:02:07;100215.63;;;17.18;93.97
77639;BME280;66802;52.574;14.398;2023-08-06T12:05:02;100224.63;;;17.12;94.57
77639;BME280;66802;52.574;14.398;2023-08-06T12:07:37;100218.34;;;17.18;94.34
77639;BME280;66802;52.574;14.398;2023-08-06T12:10:04;100217.50;;;17.18;93.44
77639;BME280;66802;52.574;14.398;2023-08-06T12:12:29;100218.53;;;17.10;93.68
77639;BME280;66802;52.574;14.398;2023-08-06T12:14:55;100208.25;;;17.12;93.91
77639;BME280;66802;52.574;14.398;2023-08-06T12:17:22;100210.78;;;17.13;93.72
77639;BME280;66802;52.574;14.398;2023-08-06T12:19:48;100211.00;;;17.19;92.80
77639;BME280;66802;52.574;14.398;2023-08-06T12:22:15;100216.84;;;17.22;92.57
77639;BME280;66802;52.574;14.398;2023-08-06T12:24:45;100205.53;;;17.25;93.13
77639;BME280;66802;52.574;14.398;2023-08-06T12:27:11;100217.91;;;17.21;93.22
77639;BME280;66802;52.574;14.398;2023-08-06T12:29:41;100207.22;;;17.20;93.19
77639;BME280;66802;52.574;14.398;2023-08-06T12:32:08;100210.34;;;17.23;92.96
77639;BME280;66802;52.574;14.398;2023-08-06T12:34:33;100201.53;;;17.14;93.71
77639;BME280;66802;52.574;14.398;2023-08-06T12:36:59;100200.50;;;17.15;93.83
77639;BME280;66802;52.574;14.398;2023-08-06T12:39:24;100194.19;;;17.22;92.90
77639;BME280;66802;52.574;14.398;2023-08-06T12:41:50;100192.72;;;17.26;92.57
77639;BME280;66802;52.574;14.398;2023-08-06T12:44:15;100193.97;;;17.23;92.58
77639;BME280;66802;52.574;14.398;2023-08-06T12:46:41;100188.53;;;17.17;92.67
77639;BME280;66802;52.574;14.398;2023-08-06T12:49:07;100179.94;;;17.13;93.35
77639;BME280;66802;52.574;14.398;2023-08-06T12:51:32;100179.53;;;17.16;92.94
77639;BME280;66802;52.574;14.398;2023-08-06T12:53:59;100185.81;;;17.17;92.83
77639;BME280;66802;52.574;14.398;2023-08-06T12:56:25;100185.19;;;17.08;93.25
77639;BME280;66802;52.574;14.398;2023-08-06T12:58:50;100178.66;;;17.09;93.14
77639;BME280;66802;52.574;14.398;2023-08-06T13:01:16;100179.75;;;17.08;93.25
77639;BME280;66802;52.574;14.398;2023-08-06T13:03:41;100183.31;;;17.08;93.29
77639;BME280;66802;52.574;14.398;2023-08-06T13:06:07;100174.03;;;17.09;93.52
77639;BME280;66802;52.574;14.398;2023-08-06T13:08:35;100174.03;;;17.09;94.11
77639;BME280;66802;52.574;14.398;2023-08-06T13:11:01;100165.47;;;17.06;93.53
77639;BME280;66802;52.574;14.398;2023-08-06T13:13:26;100175.94;;;17.09;93.49
77639;BME280;66802;52.574;14.398;2023-08-06T13:15:52;100175.53;;;17.05;93.24
77639;BME280;66802;52.574;14.398;2023-08-06T13:18:18;100171.13;;;17.04;93.49
77639;BME280;66802;52.574;14.398;2023-08-06T13:20:43;100178.03;;;17.00;92.58
77639;BME280;66802;52.574;14.398;2023-08-06T13:23:09;100177.84;;;16.95;91.70
77639;BME280;66802;52.574;14.398;2023-08-06T13:25:34;100178.06;;;16.94;92.03
77639;BME280;66802;52.574;14.398;2023-08-06T13:28:05;100173.66;;;16.86;93.33
77639;BME280;66802;52.574;14.398;2023-08-06T13:30:31;100182.25;;;16.96;93.93
77639;BME280;66802;52.574;14.398;2023-08-06T13:32:56;100178.91;;;16.94;94.05
77639;BME280;66802;52.574;14.398;2023-08-06T13:35:23;100174.91;;;16.97;94.24
77639;BME280;66802;52.574;14.398;2023-08-06T13:37:48;100171.34;;;16.96;94.09
77639;BME280;66802;52.574;14.398;2023-08-06T13:40:14;100174.69;;;16.98;93.44
77639;BME280;66802;52.574;14.398;2023-08-06T13:42:40;100180.13;;;16.98;93.09
77639;BME280;66802;52.574;14.398;2023-08-06T13:45:06;100181.41;;;16.96;93.13
77639;BME280;66802;52.574;14.398;2023-08-06T13:47:32;100196.94;;;16.95;92.19
77639;BME280;66802;52.574;14.398;2023-08-06T13:49:58;100189.38;;;16.84;92.04
77639;BME280;66802;52.574;14.398;2023-08-06T13:52:26;100191.66;;;16.81;91.66
77639;BME280;66802;52.574;14.398;2023-08-06T13:54:52;100187.28;;;16.73;92.28
77639;BME280;66802;52.574;14.398;2023-08-06T13:57:17;100193.31;;;16.68;92.32
77639;BME280;66802;52.574;14.398;2023-08-06T13:59:43;100200.25;;;16.71;91.88
77639;BME280;66802;52.574;14.398;2023-08-06T14:02:09;100206.97;;;16.68;91.64
77639;BME280;66802;52.574;14.398;2023-08-06T14:04:35;100210.94;;;16.66;90.93
77639;BME280;66802;52.574;14.398;2023-08-06T14:07:03;100206.50;;;16.58;90.60
77639;BME280;66802;52.574;14.398;2023-08-06T14:09:28;100201.88;;;16.52;90.89
77639;BME280;66802;52.574;14.398;2023-08-06T14:11:54;100208.38;;;16.51;90.79
77639;BME280;66802;52.574;14.398;2023-08-06T14:14:19;100197.69;;;16.50;91.09
77639;BME280;66802;52.574;14.398;2023-08-06T14:16:54;100193.91;;;16.51;91.26
77639;BME280;66802;52.574;14.398;2023-08-06T14:19:20;100197.47;;;16.51;90.70
77639;BME280;66802;52.574;14.398;2023-08-06T14:21:46;100201.25;;;16.50;91.84
77639;BME280;66802;52.574;14.398;2023-08-06T14:24:12;100198.94;;;16.54;92.20
77639;BME280;66802;52.574;14.398;2023-08-06T14:26:37;100197.28;;;16.53;92.63
77639;BME280;66802;52.574;14.398;2023-08-06T14:29:03;100196.44;;;16.59;92.71
77639;BME280;66802;52.574;14.398;2023-08-06T14:31:29;100198.94;;;16.60;92.27
77639;BME280;66802;52.574;14.398;2023-08-06T14:33:54;100203.59;;;16.66;91.53
77639;BME280;66802;52.574;14.398;2023-08-06T14:36:20;100198.94;;;16.60;91.09
77639;BME280;66802;52.574;14.398;2023-08-06T14:38:46;100196.63;;;16.57;90.71
77639;BME280;66802;52.574;14.398;2023-08-06T14:41:11;100198.50;;;16.50;91.32
77639;BME280;66802;52.574;14.398;2023-08-06T14:43:37;100198.72;;;16.49;91.29
77639;BME280;66802;52.574;14.398;2023-08-06T14:46:02;100194.50;;;16.46;91.24
77639;BME280;66802;52.574;14.398;2023-08-06T14:48:30;100195.34;;;16.47;91.04
77639;BME280;66802;52.574;14.398;2023-08-06T14:50:55;100204.16;;;16.49;91.52
77639;BME280;66802;52.574;14.398;2023-08-06T14:53:21;100200.81;;;16.47;92.38
77639;BME280;66802;52.574;14.398;2023-08-06T14:55:46;100201.63;;;16.47;92.20
77639;BME280;66802;52.574;14.398;2023-08-06T14:58:12;100192.81;;;16.45;92.04
77639;BME280;66802;52.574;14.398;2023-08-06T15:00:38;100201.63;;;16.47;91.78
77639;BME280;66802;52.574;14.398;2023-08-06T15:03:03;100206.03;;;16.48;91.82
77639;BME280;66802;52.574;14.398;2023-08-06T15:05:29;100196.38;;;16.46;91.66
77639;BME280;66802;52.574;14.398;2023-08-06T15:07:55;100207.94;;;16.41;92.19
77639;BME280;66802;52.574;14.398;2023-08-06T15:10:21;100193.03;;;16.37;92.36
77639;BME280;66802;52.574;14.398;2023-08-06T15:12:46;100201.84;;;16.39;92.03
77639;BME280;66802;52.574;14.398;2023-08-06T15:15:12;100205.41;;;16.33;92.13
77639;BME280;66802;52.574;14.398;2023-08-06T15:17:38;100200.56;;;16.28;92.62
77639;BME280;66802;52.574;14.398;2023-08-06T15:20:04;100203.06;;;16.30;92.63
77639;BME280;66802;52.574;14.398;2023-08-06T15:22:30;100202.44;;;16.28;92.83
77639;BME280;66802;52.574;14.398;2023-08-06T15:25:00;100211.66;;;16.27;93.11
77639;BME280;66802;52.574;14.398;2023-08-06T15:27:26;100196.13;;;16.21;92.95
77639;BME280;66802;52.574;14.398;2023-08-06T15:29:52;100214.78;;;16.24;93.36
77639;BME280;66802;52.574;14.398;2023-08-06T15:32:17;100212.47;;;16.21;93.09
77639;BME280;66802;52.574;14.398;2023-08-06T15:34:43;100213.09;;;16.23;92.36
77639;BME280;66802;52.574;14.398;2023-08-06T15:37:08;100215.41;;;16.26;91.87
77639;BME280;66802;52.574;14.398;2023-08-06T15:39:34;100223.16;;;16.22;91.17
77639;BME280;66802;52.574;14.398;2023-08-06T15:42:00;100216.03;;;16.21;90.52
77639;BME280;66802;52.574;14.398;2023-08-06T15:44:26;100222.09;;;16.17;91.25
77639;BME280;66802;52.574;14.398;2023-08-06T15:46:51;100222.94;;;16.17;91.10